sensor_id;sensor_type;location;lat;lon;timestamp;pressure;altitude;pressure_sealevel;temperature
29423;BMP180;16399;51.686;8.684;2023-05-20T00:01:28;100669.00;;;11.40
29423;BMP180;16399;51.686;8.684;2023-05-20T00:04:30;100664.00;;;11.40
29423;BMP180;16399;51.686;8.684;2023-05-20T00:07:32;100653.00;;;11.30
29423;BMP180;16399;51.686;8.684;2023-05-20T00:10:35;100655.00;;;11.30
29423;BMP180;16399;51.686;8.684;2023-05-20T00:13:37;100655.00;;;11.30
29423;BMP180;16399;51.686;8.684;2023-05-20T00:16:40;100648.00;;;11.30
29423;BMP180;16399;51.686;8.684;2023-05-20T00:19:43;100659.00;;;11.30
29423;BMP180;16399;51.686;8.684;2023-05-20T00:22:46;100657.00;;;11.30
29423;BMP180;16399;51.686;8.684;2023-05-20T00:25:49;100659.00;;;11.40
29423;BMP180;16399;51.686;8.684;2023-05-20T00:28:51;100643.00;;;11.40
29423;BMP180;16399;51.686;8.684;2023-05-20T00:31:53;100645.00;;;11.50
29423;BMP180;16399;51.686;8.684;2023-05-20T00:34:59;100648.00;;;11.50
29423;BMP180;16399;51.686;8.684;2023-05-20T00:38:01;100649.00;;;11.50
29423;BMP180;16399;51.686;8.684;2023-05-20T00:41:04;100636.00;;;11.50
29423;BMP180;16399;51.686;8.684;2023-05-20T00:44:06;100641.00;;;11.50
29423;BMP180;16399;51.686;8.684;2023-05-20T00:47:08;100646.00;;;11.60
29423;BMP180;16399;51.686;8.684;2023-05-20T00:50:10;100640.00;;;11.60
29423;BMP180;16399;51.686;8.684;2023-05-20T00:53:14;100645.00;;;11.60
29423;BMP180;16399;51.686;8.684;2023-05-20T00:56:19;100644.00;;;11.60
29423;BMP180;16399;51.686;8.684;2023-05-20T00:59:22;100644.00;;;11.60
29423;BMP180;16399;51.686;8.684;2023-05-20T01:02:25;100645.00;;;11.50
29423;BMP180;16399;51.686;8.684;2023-05-20T01:05:27;100645.00;;;11.40
29423;BMP180;16399;51.686;8.684;2023-05-20T01:08:29;100633.00;;;11.40
29423;BMP180;16399;51.686;8.684;2023-05-20T01:11:34;100640.00;;;11.40
29423;BMP180;16399;51.686;8.684;2023-05-20T01:14:45;100638.00;;;11.30
29423;BMP180;16399;51.686;8.684;2023-05-20T01:17:48;100641.00;;;11.30
29423;BMP180;16399;51.686;8.684;2023-05-20T01:20:52;100635.00;;;11.20
29423;BMP180;16399;51.686;8.684;2023-05-20T01:23:55;100630.00;;;11.20
29423;BMP180;16399;51.686;8.684;2023-05-20T01:26:57;100632.00;;;11.20
29423;BMP180;16399;51.686;8.684;2023-05-20T01:29:59;100630.00;;;11.20
29423;BMP180;16399;51.686;8.684;2023-05-20T01:33:08;100629.00;;;11.20
29423;BMP180;16399;51.686;8.684;2023-05-20T01:36:11;100634.00;;;11.10
29423;BMP180;16399;51.686;8.684;2023-05-20T01:39:13;100633.00;;;11.10
29423;BMP180;16399;51.686;8.684;2023-05-20T01:42:16;100629.00;;;11.00
29423;BMP180;16399;51.686;8.684;2023-05-20T01:45:19;100635.00;;;10.90
29423;BMP180;16399;51.686;8.684;2023-05-20T01:48:22;100631.00;;;10.80
29423;BMP180;16399;51.686;8.684;2023-05-20T01:51:24;100629.00;;;10.70
29423;BMP180;16399;51.686;8.684;2023-05-20T01:54:27;100628.00;;;10.70
29423;BMP180;16399;51.686;8.684;2023-05-20T01:57:30;100627.00;;;10.60
29423;BMP180;16399;51.686;8.684;2023-05-20T02:00:32;100627.00;;;10.60
29423;BMP180;16399;51.686;8.684;2023-05-20T02:03:35;100626.00;;;10.50
29423;BMP180;16399;51.686;8.684;2023-05-20T02:06:37;100625.00;;;10.50
29423;BMP180;16399;51.686;8.684;2023-05-20T02:09:39;100624.00;;;10.40
29423;BMP180;16399;51.686;8.684;2023-05-20T02:12:42;100626.00;;;10.30
29423;BMP180;16399;51.686;8.684;2023-05-20T02:15:44;100622.00;;;10.20
29423;BMP180;16399;51.686;8.684;2023-05-20T02:18:46;100623.00;;;10.20
29423;BMP180;16399;51.686;8.684;2023-05-20T02:21:49;100631.00;;;10.10
29423;BMP180;16399;51.686;8.684;2023-05-20T02:24:52;100630.00;;;10.00
29423;BMP180;16399;51.686;8.684;2023-05-20T02:27:54;100625.00;;;10.00
29423;BMP180;16399;51.686;8.684;2023-05-20T02:30:56;100623.00;;;9.90
29423;BMP180;16399;51.686;8.684;2023-05-20T02:33:59;100622.00;;;9.90
29423;BMP180;16399;51.686;8.684;2023-05-20T02:37:01;100615.00;;;9.80
29423;BMP180;16399;51.686;8.684;2023-05-20T02:40:04;100621.00;;;9.80
29423;BMP180;16399;51.686;8.684;2023-05-20T02:43:06;100616.00;;;9.70
29423;BMP180;16399;51.686;8.684;2023-05-20T02:46:09;100618.00;;;9.70
29423;BMP180;16399;51.686;8.684;2023-05-20T02:49:11;100611.00;;;9.70
29423;BMP180;16399;51.686;8.684;2023-05-20T02:52:14;100602.00;;;9.70
29423;BMP180;16399;51.686;8.684;2023-05-20T02:55:16;100605.00;;;9.70
29423;BMP180;16399;51.686;8.684;2023-05-20T02:58:18;100608.00;;;9.70
29423;BMP180;16399;51.686;8.684;2023-05-20T03:01:22;100602.00;;;9.70
29423;BMP180;16399;51.686;8.684;2023-05-20T03:04:25;100592.00;;;9.60
29423;BMP180;16399;51.686;8.684;2023-05-20T03:07:28;100587.00;;;9.60
29423;BMP180;16399;51.686;8.684;2023-05-20T03:10:30;100604.00;;;9.50
29423;BMP180;16399;51.686;8.684;2023-05-20T03:13:32;100603.00;;;9.50
29423;BMP180;16399;51.686;8.684;2023-05-20T03:16:35;100601.00;;;9.50
29423;BMP180;16399;51.686;8.684;2023-05-20T03:19:38;100598.00;;;9.40
29423;BMP180;16399;51.686;8.684;2023-05-20T03:22:40;100605.00;;;9.40
29423;BMP180;16399;51.686;8.684;2023-05-20T03:25:42;100602.00;;;9.40
29423;BMP180;16399;51.686;8.684;2023-05-20T03:28:45;100606.00;;;9.40
29423;BMP180;16399;51.686;8.684;2023-05-20T03:31:47;100614.00;;;9.40
29423;BMP180;16399;51.686;8.684;2023-05-20T03:34:49;100606.00;;;9.40
29423;BMP180;16399;51.686;8.684;2023-05-20T03:37:52;100606.00;;;9.40
29423;BMP180;16399;51.686;8.684;2023-05-20T03:40:54;100593.00;;;9.40
29423;BMP180;16399;51.686;8.684;2023-05-20T03:43:57;100596.00;;;9.50
29423;BMP180;16399;51.686;8.684;2023-05-20T03:46:59;100594.00;;;9.60
29423;BMP180;16399;51.686;8.684;2023-05-20T03:50:01;100591.00;;;9.70
29423;BMP180;16399;51.686;8.684;2023-05-20T03:53:04;100593.00;;;9.80
29423;BMP180;16399;51.686;8.684;2023-05-20T03:56:06;100583.00;;;9.90
29423;BMP180;16399;51.686;8.684;2023-05-20T03:59:09;100590.00;;;10.00
29423;BMP180;16399;51.686;8.684;2023-05-20T04:02:11;100594.00;;;10.00
29423;BMP180;16399;51.686;8.684;2023-05-20T04:05:13;100586.00;;;10.10
29423;BMP180;16399;51.686;8.684;2023-05-20T04:08:16;100586.00;;;10.10
29423;BMP180;16399;51.686;8.684;2023-05-20T04:11:19;100587.00;;;10.20
29423;BMP180;16399;51.686;8.684;2023-05-20T04:14:22;100581.00;;;10.20
29423;BMP180;16399;51.686;8.684;2023-05-20T04:17:24;100569.00;;;10.30
29423;BMP180;16399;51.686;8.684;2023-05-20T04:20:26;100571.00;;;10.40
29423;BMP180;16399;51.686;8.684;2023-05-20T04:23:29;100580.00;;;10.50
29423;BMP180;16399;51.686;8.684;2023-05-20T04:26:31;100576.00;;;10.50
29423;BMP180;16399;51.686;8.684;2023-05-20T04:29:33;100581.00;;;10.60
29423;BMP180;16399;51.686;8.684;2023-05-20T04:32:36;100577.00;;;10.70
29423;BMP180;16399;51.686;8.684;2023-05-20T04:35:38;100566.00;;;10.80
29423;BMP180;16399;51.686;8.684;2023-05-20T04:38:41;100568.00;;;10.90
29423;BMP180;16399;51.686;8.684;2023-05-20T04:41:44;100570.00;;;11.00
29423;BMP180;16399;51.686;8.684;2023-05-20T04:44:48;100569.00;;;11.00
29423;BMP180;16399;51.686;8.684;2023-05-20T04:47:51;100571.00;;;11.20
29423;BMP180;16399;51.686;8.684;2023-05-20T04:50:53;100565.00;;;11.30
29423;BMP180;16399;51.686;8.684;2023-05-20T04:53:55;100569.00;;;11.40
29423;BMP180;16399;51.686;8.684;2023-05-20T04:56:59;100572.00;;;11.50
29423;BMP180;16399;51.686;8.684;2023-05-20T05:00:01;100561.00;;;11.60
29423;BMP180;16399;51.686;8.684;2023-05-20T05:03:05;100566.00;;;11.70
29423;BMP180;16399;51.686;8.684;2023-05-20T05:06:08;100565.00;;;11.80
29423;BMP180;16399;51.686;8.684;2023-05-20T05:09:10;100573.00;;;11.80
29423;BMP180;16399;51.686;8.684;2023-05-20T05:12:13;100569.00;;;11.90
29423;BMP180;16399;51.686;8.684;2023-05-20T05:15:16;100569.00;;;12.00
29423;BMP180;16399;51.686;8.684;2023-05-20T05:18:18;100567.00;;;12.00
29423;BMP180;16399;51.686;8.684;2023-05-20T05:21:20;100554.00;;;12.10
29423;BMP180;16399;51.686;8.684;2023-05-20T05:24:23;100558.00;;;12.20
29423;BMP180;16399;51.686;8.684;2023-05-20T05:27:25;100570.00;;;12.20
29423;BMP180;16399;51.686;8.684;2023-05-20T05:30:27;100567.00;;;12.30
29423;BMP180;16399;51.686;8.684;2023-05-20T05:33:30;100573.00;;;12.30
29423;BMP180;16399;51.686;8.684;2023-05-20T05:36:33;100567.00;;;12.40
29423;BMP180;16399;51.686;8.684;2023-05-20T05:39:35;100570.00;;;12.40
29423;BMP180;16399;51.686;8.684;2023-05-20T05:42:37;100578.00;;;12.50
29423;BMP180;16399;51.686;8.684;2023-05-20T05:45:40;100570.00;;;12.50
29423;BMP180;16399;51.686;8.684;2023-05-20T05:48:43;100577.00;;;12.60
29423;BMP180;16399;51.686;8.684;2023-05-20T05:51:47;100570.00;;;12.60
29423;BMP180;16399;51.686;8.684;2023-05-20T05:54:49;100571.00;;;12.70
29423;BMP180;16399;51.686;8.684;2023-05-20T05:57:51;100565.00;;;12.70
29423;BMP180;16399;51.686;8.684;2023-05-20T06:00:54;100559.00;;;12.80
29423;BMP180;16399;51.686;8.684;2023-05-20T06:03:56;100557.00;;;12.90
29423;BMP180;16399;51.686;8.684;2023-05-20T06:06:58;100556.00;;;12.90
29423;BMP180;16399;51.686;8.684;2023-05-20T06:10:01;100547.00;;;13.00
29423;BMP180;16399;51.686;8.684;2023-05-20T06:13:03;100554.00;;;13.10
29423;BMP180;16399;51.686;8.684;2023-05-20T06:16:06;100545.00;;;13.20
29423;BMP180;16399;51.686;8.684;2023-05-20T06:19:08;100542.00;;;13.20
29423;BMP180;16399;51.686;8.684;2023-05-20T06:22:10;100547.00;;;13.30
29423;BMP180;16399;51.686;8.684;2023-05-20T06:25:13;100549.00;;;13.30
29423;BMP180;16399;51.686;8.684;2023-05-20T06:28:15;100553.00;;;13.30
29423;BMP180;16399;51.686;8.684;2023-05-20T06:31:18;100555.00;;;13.30
29423;BMP180;16399;51.686;8.684;2023-05-20T06:34:21;100543.00;;;13.30
29423;BMP180;16399;51.686;8.684;2023-05-20T06:37:24;100551.00;;;13.40
29423;BMP180;16399;51.686;8.684;2023-05-20T06:40:27;100551.00;;;13.40
29423;BMP180;16399;51.686;8.684;2023-05-20T06:43:29;100548.00;;;13.50
29423;BMP180;16399;51.686;8.684;2023-05-20T06:46:32;100552.00;;;13.50
29423;BMP180;16399;51.686;8.684;2023-05-20T06:49:34;100556.00;;;13.50
29423;BMP180;16399;51.686;8.684;2023-05-20T06:52:37;100551.00;;;13.50
29423;BMP180;16399;51.686;8.684;2023-05-20T06:55:39;100549.00;;;13.60
29423;BMP180;16399;51.686;8.684;2023-05-20T06:58:41;100544.00;;;13.60
29423;BMP180;16399;51.686;8.684;2023-05-20T07:01:43;100540.00;;;13.70
29423;BMP180;16399;51.686;8.684;2023-05-20T07:04:46;100534.00;;;13.80
29423;BMP180;16399;51.686;8.684;2023-05-20T07:07:48;100529.00;;;13.90
29423;BMP180;16399;51.686;8.684;2023-05-20T07:10:51;100531.00;;;14.00
29423;BMP180;16399;51.686;8.684;2023-05-20T07:13:53;100531.00;;;14.00
29423;BMP180;16399;51.686;8.684;2023-05-20T07:16:55;100526.00;;;14.10
29423;BMP180;16399;51.686;8.684;2023-05-20T07:19:57;100518.00;;;14.10
29423;BMP180;16399;51.686;8.684;2023-05-20T07:23:00;100512.00;;;14.20
29423;BMP180;16399;51.686;8.684;2023-05-20T07:26:04;100515.00;;;14.30
29423;BMP180;16399;51.686;8.684;2023-05-20T07:29:07;100507.00;;;14.40
29423;BMP180;16399;51.686;8.684;2023-05-20T07:32:10;100502.00;;;14.60
29423;BMP180;16399;51.686;8.684;2023-05-20T07:35:12;100488.00;;;14.90
29423;BMP180;16399;51.686;8.684;2023-05-20T07:38:15;100486.00;;;15.10
29423;BMP180;16399;51.686;8.684;2023-05-20T07:41:17;100484.00;;;15.30
29423;BMP180;16399;51.686;8.684;2023-05-20T07:44:19;100476.00;;;15.50
29423;BMP180;16399;51.686;8.684;2023-05-20T07:47:23;100469.00;;;15.80
29423;BMP180;16399;51.686;8.684;2023-05-20T07:50:25;100474.00;;;16.00
29423;BMP180;16399;51.686;8.684;2023-05-20T07:53:28;100467.00;;;16.10
29423;BMP180;16399;51.686;8.684;2023-05-20T07:56:30;100469.00;;;16.50
29423;BMP180;16399;51.686;8.684;2023-05-20T07:59:33;100468.00;;;16.70
29423;BMP180;16399;51.686;8.684;2023-05-20T08:02:35;100466.00;;;16.90
29423;BMP180;16399;51.686;8.684;2023-05-20T08:05:40;100469.00;;;17.00
29423;BMP180;16399;51.686;8.684;2023-05-20T08:08:41;100454.00;;;17.10
29423;BMP180;16399;51.686;8.684;2023-05-20T08:11:44;100466.00;;;17.10
29423;BMP180;16399;51.686;8.684;2023-05-20T08:14:46;100472.00;;;17.20
29423;BMP180;16399;51.686;8.684;2023-05-20T08:17:48;100462.00;;;17.50
29423;BMP180;16399;51.686;8.684;2023-05-20T08:20:51;100461.00;;;17.70
29423;BMP180;16399;51.686;8.684;2023-05-20T08:23:53;100459.00;;;17.80
29423;BMP180;16399;51.686;8.684;2023-05-20T08:26:55;100463.00;;;18.00
29423;BMP180;16399;51.686;8.684;2023-05-20T08:29:58;100455.00;;;17.90
29423;BMP180;16399;51.686;8.684;2023-05-20T08:33:00;100457.00;;;17.70
29423;BMP180;16399;51.686;8.684;2023-05-20T08:36:02;100442.00;;;17.80
29423;BMP180;16399;51.686;8.684;2023-05-20T08:39:05;100448.00;;;18.00
29423;BMP180;16399;51.686;8.684;2023-05-20T08:42:08;100462.00;;;18.10
29423;BMP180;16399;51.686;8.684;2023-05-20T08:45:12;100453.00;;;17.70
29423;BMP180;16399;51.686;8.684;2023-05-20T08:48:17;100446.00;;;17.80
29423;BMP180;16399;51.686;8.684;2023-05-20T08:51:20;100449.00;;;17.80
29423;BMP180;16399;51.686;8.684;2023-05-20T08:54:26;100455.00;;;17.90
29423;BMP180;16399;51.686;8.684;2023-05-20T08:57:30;100464.00;;;17.70
29423;BMP180;16399;51.686;8.684;2023-05-20T09:00:34;100465.00;;;17.50
29423;BMP180;16399;51.686;8.684;2023-05-20T09:03:37;100471.00;;;17.40
29423;BMP180;16399;51.686;8.684;2023-05-20T09:06:44;100449.00;;;17.50
29423;BMP180;16399;51.686;8.684;2023-05-20T09:09:48;100460.00;;;17.80
29423;BMP180;16399;51.686;8.684;2023-05-20T09:12:51;100455.00;;;18.00
29423;BMP180;16399;51.686;8.684;2023-05-20T09:15:53;100442.00;;;18.00
29423;BMP180;16399;51.686;8.684;2023-05-20T09:18:56;100445.00;;;18.20
29423;BMP180;16399;51.686;8.684;2023-05-20T09:21:58;100446.00;;;18.70
29423;BMP180;16399;51.686;8.684;2023-05-20T09:25:01;100448.00;;;18.80
29423;BMP180;16399;51.686;8.684;2023-05-20T09:28:07;100444.00;;;18.80
29423;BMP180;16399;51.686;8.684;2023-05-20T09:31:09;100451.00;;;18.50
29423;BMP180;16399;51.686;8.684;2023-05-20T09:34:14;100456.00;;;18.20
29423;BMP180;16399;51.686;8.684;2023-05-20T09:37:17;100454.00;;;17.90
29423;BMP180;16399;51.686;8.684;2023-05-20T09:40:28;100447.00;;;17.80
29423;BMP180;16399;51.686;8.684;2023-05-20T09:43:31;100445.00;;;17.60
29423;BMP180;16399;51.686;8.684;2023-05-20T09:46:34;100446.00;;;17.40
29423;BMP180;16399;51.686;8.684;2023-05-20T09:49:37;100448.00;;;17.60
29423;BMP180;16399;51.686;8.684;2023-05-20T09:52:41;100454.00;;;17.50
29423;BMP180;16399;51.686;8.684;2023-05-20T09:55:45;100444.00;;;17.90
29423;BMP180;16399;51.686;8.684;2023-05-20T09:58:48;100439.00;;;18.30
29423;BMP180;16399;51.686;8.684;2023-05-20T10:01:51;100449.00;;;18.10
29423;BMP180;16399;51.686;8.684;2023-05-20T10:04:55;100440.00;;;18.40
29423;BMP180;16399;51.686;8.684;2023-05-20T10:08:38;100441.00;;;18.50
29423;BMP180;16399;51.686;8.684;2023-05-20T10:11:46;100437.00;;;18.40
29423;BMP180;16399;51.686;8.684;2023-05-20T10:18:08;100431.00;;;18.40
29423;BMP180;16399;51.686;8.684;2023-05-20T10:21:17;100439.00;;;18.50
29423;BMP180;16399;51.686;8.684;2023-05-20T10:24:34;100431.00;;;18.70
29423;BMP180;16399;51.686;8.684;2023-05-20T10:27:45;100420.00;;;18.70
29423;BMP180;16399;51.686;8.684;2023-05-20T10:30:51;100422.00;;;18.40
29423;BMP180;16399;51.686;8.684;2023-05-20T10:33:53;100414.00;;;18.30
29423;BMP180;16399;51.686;8.684;2023-05-20T10:36:57;100433.00;;;18.60
29423;BMP180;16399;51.686;8.684;2023-05-20T10:43:13;100432.00;;;18.40
29423;BMP180;16399;51.686;8.684;2023-05-20T10:46:18;100417.00;;;18.30
29423;BMP180;16399;51.686;8.684;2023-05-20T10:49:20;100428.00;;;18.10
29423;BMP180;16399;51.686;8.684;2023-05-20T10:52:23;100425.00;;;17.90
29423;BMP180;16399;51.686;8.684;2023-05-20T10:55:33;100413.00;;;18.00
29423;BMP180;16399;51.686;8.684;2023-05-20T10:58:38;100427.00;;;18.00
29423;BMP180;16399;51.686;8.684;2023-05-20T11:01:41;100431.00;;;17.90
29423;BMP180;16399;51.686;8.684;2023-05-20T11:04:44;100428.00;;;17.80
29423;BMP180;16399;51.686;8.684;2023-05-20T11:07:47;100422.00;;;17.80
29423;BMP180;16399;51.686;8.684;2023-05-20T11:10:50;100415.00;;;17.90
29423;BMP180;16399;51.686;8.684;2023-05-20T11:13:52;100412.00;;;17.90
29423;BMP180;16399;51.686;8.684;2023-05-20T11:16:58;100413.00;;;17.80
29423;BMP180;16399;51.686;8.684;2023-05-20T11:20:01;100411.00;;;17.70
29423;BMP180;16399;51.686;8.684;2023-05-20T11:23:06;100409.00;;;17.60
29423;BMP180;16399;51.686;8.684;2023-05-20T11:26:09;100399.00;;;17.40
29423;BMP180;16399;51.686;8.684;2023-05-20T11:29:11;100404.00;;;17.20
29423;BMP180;16399;51.686;8.684;2023-05-20T11:32:14;100401.00;;;17.20
29423;BMP180;16399;51.686;8.684;2023-05-20T11:35:24;100407.00;;;17.10
29423;BMP180;16399;51.686;8.684;2023-05-20T11:38:27;100402.00;;;17.00
29423;BMP180;16399;51.686;8.684;2023-05-20T11:41:31;100415.00;;;16.90
29423;BMP180;16399;51.686;8.684;2023-05-20T11:44:33;100407.00;;;16.90
29423;BMP180;16399;51.686;8.684;2023-05-20T11:47:35;100415.00;;;16.90
29423;BMP180;16399;51.686;8.684;2023-05-20T11:50:41;100400.00;;;16.90
29423;BMP180;16399;51.686;8.684;2023-05-20T11:53:45;100378.00;;;16.80
29423;BMP180;16399;51.686;8.684;2023-05-20T11:56:49;100387.00;;;16.90
29423;BMP180;16399;51.686;8.684;2023-05-20T11:59:51;100368.00;;;17.10
29423;BMP180;16399;51.686;8.684;2023-05-20T12:02:54;100370.00;;;17.30
29423;BMP180;16399;51.686;8.684;2023-05-20T12:05:59;100359.00;;;17.50
29423;BMP180;16399;51.686;8.684;2023-05-20T12:09:02;100359.00;;;17.70
29423;BMP180;16399;51.686;8.684;2023-05-20T12:12:06;100364.00;;;17.90
29423;BMP180;16399;51.686;8.684;2023-05-20T12:15:09;100372.00;;;17.90
29423;BMP180;16399;51.686;8.684;2023-05-20T12:18:11;100376.00;;;17.90
29423;BMP180;16399;51.686;8.684;2023-05-20T12:21:14;100371.00;;;17.80
29423;BMP180;16399;51.686;8.684;2023-05-20T12:24:16;100359.00;;;17.90
29423;BMP180;16399;51.686;8.684;2023-05-20T12:27:18;100360.00;;;18.30
29423;BMP180;16399;51.686;8.684;2023-05-20T12:30:22;100361.00;;;18.50
29423;BMP180;16399;51.686;8.684;2023-05-20T12:33:24;100349.00;;;18.60
29423;BMP180;16399;51.686;8.684;2023-05-20T12:36:27;100355.00;;;18.60
29423;BMP180;16399;51.686;8.684;2023-05-20T12:39:30;100353.00;;;18.40
29423;BMP180;16399;51.686;8.684;2023-05-20T12:42:33;100356.00;;;18.60
29423;BMP180;16399;51.686;8.684;2023-05-20T12:45:35;100345.00;;;18.40
29423;BMP180;16399;51.686;8.684;2023-05-20T12:48:37;100360.00;;;18.10
29423;BMP180;16399;51.686;8.684;2023-05-20T12:51:39;100350.00;;;18.00
29423;BMP180;16399;51.686;8.684;2023-05-20T12:54:42;100352.00;;;18.00
29423;BMP180;16399;51.686;8.684;2023-05-20T12:57:46;100344.00;;;17.90
29423;BMP180;16399;51.686;8.684;2023-05-20T13:00:48;100340.00;;;18.00
29423;BMP180;16399;51.686;8.684;2023-05-20T13:03:51;100335.00;;;18.00
29423;BMP180;16399;51.686;8.684;2023-05-20T13:06:54;100331.00;;;18.00
29423;BMP180;16399;51.686;8.684;2023-05-20T13:09:56;100325.00;;;18.00
29423;BMP180;16399;51.686;8.684;2023-05-20T13:12:59;100319.00;;;17.90
29423;BMP180;16399;51.686;8.684;2023-05-20T13:16:01;100325.00;;;17.70
29423;BMP180;16399;51.686;8.684;2023-05-20T13:19:04;100324.00;;;17.70
29423;BMP180;16399;51.686;8.684;2023-05-20T13:22:06;100315.00;;;17.70
29423;BMP180;16399;51.686;8.684;2023-05-20T13:25:09;100311.00;;;17.60
29423;BMP180;16399;51.686;8.684;2023-05-20T13:28:12;100320.00;;;17.70
29423;BMP180;16399;51.686;8.684;2023-05-20T13:31:15;100305.00;;;17.60
29423;BMP180;16399;51.686;8.684;2023-05-20T13:34:18;100302.00;;;17.60
29423;BMP180;16399;51.686;8.684;2023-05-20T13:37:21;100298.00;;;17.70
29423;BMP180;16399;51.686;8.684;2023-05-20T13:40:23;100294.00;;;17.80
29423;BMP180;16399;51.686;8.684;2023-05-20T13:43:25;100286.00;;;18.00
29423;BMP180;16399;51.686;8.684;2023-05-20T13:46:28;100286.00;;;18.20
29423;BMP180;16399;51.686;8.684;2023-05-20T13:49:31;100279.00;;;18.30
29423;BMP180;16399;51.686;8.684;2023-05-20T13:52:33;100272.00;;;18.50
29423;BMP180;16399;51.686;8.684;2023-05-20T13:55:35;100284.00;;;18.60
29423;BMP180;16399;51.686;8.684;2023-05-20T13:58:38;100273.00;;;18.70
29423;BMP180;16399;51.686;8.684;2023-05-20T14:01:40;100288.00;;;18.50
29423;BMP180;16399;51.686;8.684;2023-05-20T14:04:44;100277.00;;;18.50
29423;BMP180;16399;51.686;8.684;2023-05-20T14:07:47;100267.00;;;18.40
29423;BMP180;16399;51.686;8.684;2023-05-20T14:10:49;100269.00;;;18.20
29423;BMP180;16399;51.686;8.684;2023-05-20T14:13:53;100282.00;;;18.20
29423;BMP180;16399;51.686;8.684;2023-05-20T14:16:55;100273.00;;;18.00
29423;BMP180;16399;51.686;8.684;2023-05-20T14:19:58;100278.00;;;18.00
29423;BMP180;16399;51.686;8.684;2023-05-20T14:23:00;100271.00;;;18.00
29423;BMP180;16399;51.686;8.684;2023-05-20T14:26:03;100272.00;;;18.00
29423;BMP180;16399;51.686;8.684;2023-05-20T14:29:05;100278.00;;;17.80
29423;BMP180;16399;51.686;8.684;2023-05-20T14:32:07;100268.00;;;17.80
29423;BMP180;16399;51.686;8.684;2023-05-20T14:35:11;100271.00;;;17.70
29423;BMP180;16399;51.686;8.684;2023-05-20T14:38:14;100285.00;;;17.60
29423;BMP180;16399;51.686;8.684;2023-05-20T14:41:17;100275.00;;;17.40
29423;BMP180;16399;51.686;8.684;2023-05-20T14:44:19;100277.00;;;17.40
29423;BMP180;16399;51.686;8.684;2023-05-20T14:47:21;100272.00;;;17.30
29423;BMP180;16399;51.686;8.684;2023-05-20T14:50:23;100269.00;;;17.30
29423;BMP180;16399;51.686;8.684;2023-05-20T14:53:26;100278.00;;;17.30
29423;BMP180;16399;51.686;8.684;2023-05-20T14:56:28;100261.00;;;17.30
29423;BMP180;16399;51.686;8.684;2023-05-20T14:59:31;100264.00;;;17.40
29423;BMP180;16399;51.686;8.684;2023-05-20T15:02:34;100276.00;;;17.40
29423;BMP180;16399;51.686;8.684;2023-05-20T15:05:36;100268.00;;;17.40
29423;BMP180;16399;51.686;8.684;2023-05-20T15:08:38;100259.00;;;17.30
29423;BMP180;16399;51.686;8.684;2023-05-20T15:11:41;100266.00;;;17.10
29423;BMP180;16399;51.686;8.684;2023-05-20T15:14:44;100261.00;;;17.10
29423;BMP180;16399;51.686;8.684;2023-05-20T15:17:46;100252.00;;;17.10
29423;BMP180;16399;51.686;8.684;2023-05-20T15:20:48;100256.00;;;17.00
29423;BMP180;16399;51.686;8.684;2023-05-20T15:23:51;100251.00;;;17.10
29423;BMP180;16399;51.686;8.684;2023-05-20T15:26:53;100239.00;;;16.90
29423;BMP180;16399;51.686;8.684;2023-05-20T15:29:55;100253.00;;;17.00
29423;BMP180;16399;51.686;8.684;2023-05-20T15:32:58;100254.00;;;17.00
29423;BMP180;16399;51.686;8.684;2023-05-20T15:36:00;100258.00;;;17.00
29423;BMP180;16399;51.686;8.684;2023-05-20T15:39:03;100255.00;;;17.00
29423;BMP180;16399;51.686;8.684;2023-05-20T15:42:05;100265.00;;;17.00
29423;BMP180;16399;51.686;8.684;2023-05-20T15:45:08;100264.00;;;17.00
29423;BMP180;16399;51.686;8.684;2023-05-20T15:48:11;100261.00;;;16.90
29423;BMP180;16399;51.686;8.684;2023-05-20T15:51:13;100258.00;;;16.80
29423;BMP180;16399;51.686;8.684;2023-05-20T15:54:16;100257.00;;;16.80
29423;BMP180;16399;51.686;8.684;2023-05-20T15:57:20;100234.00;;;16.80
29423;BMP180;16399;51.686;8.684;2023-05-20T16:00:22;100248.00;;;16.80
29423;BMP180;16399;51.686;8.684;2023-05-20T16:03:25;100249.00;;;16.80
29423;BMP180;16399;51.686;8.684;2023-05-20T16:06:27;100240.00;;;16.90
29423;BMP180;16399;51.686;8.684;2023-05-20T16:09:29;100240.00;;;16.80
29423;BMP180;16399;51.686;8.684;2023-05-20T16:12:31;100242.00;;;16.80
29423;BMP180;16399;51.686;8.684;2023-05-20T16:15:34;100232.00;;;16.80
29423;BMP180;16399;51.686;8.684;2023-05-20T16:18:38;100226.00;;;16.80
29423;BMP180;16399;51.686;8.684;2023-05-20T16:21:40;100222.00;;;16.80
29423;BMP180;16399;51.686;8.684;2023-05-20T16:24:42;100216.00;;;16.80
29423;BMP180;16399;51.686;8.684;2023-05-20T16:27:45;100224.00;;;16.80
29423;BMP180;16399;51.686;8.684;2023-05-20T16:30:47;100224.00;;;16.80
29423;BMP180;16399;51.686;8.684;2023-05-20T16:33:49;100218.00;;;16.80
29423;BMP180;16399;51.686;8.684;2023-05-20T16:36:51;100226.00;;;16.80
29423;BMP180;16399;51.686;8.684;2023-05-20T16:39:54;100219.00;;;16.80
29423;BMP180;16399;51.686;8.684;2023-05-20T16:42:56;100211.00;;;16.80
29423;BMP180;16399;51.686;8.684;2023-05-20T16:45:58;100217.00;;;16.80
29423;BMP180;16399;51.686;8.684;2023-05-20T16:49:01;100220.00;;;16.80
29423;BMP180;16399;51.686;8.684;2023-05-20T16:52:03;100218.00;;;16.70
29423;BMP180;16399;51.686;8.684;2023-05-20T16:55:06;100225.00;;;16.80
29423;BMP180;16399;51.686;8.684;2023-05-20T16:58:08;100217.00;;;16.70
29423;BMP180;16399;51.686;8.684;2023-05-20T17:01:10;100224.00;;;16.70
29423;BMP180;16399;51.686;8.684;2023-05-20T17:04:13;100217.00;;;16.60
29423;BMP180;16399;51.686;8.684;2023-05-20T17:07:15;100221.00;;;16.60
29423;BMP180;16399;51.686;8.684;2023-05-20T17:10:18;100233.00;;;16.50
29423;BMP180;16399;51.686;8.684;2023-05-20T17:13:20;100225.00;;;16.50
29423;BMP180;16399;51.686;8.684;2023-05-20T17:16:23;100228.00;;;16.50
29423;BMP180;16399;51.686;8.684;2023-05-20T17:19:25;100223.00;;;16.50
29423;BMP180;16399;51.686;8.684;2023-05-20T17:22:27;100239.00;;;16.50
29423;BMP180;16399;51.686;8.684;2023-05-20T17:25:29;100232.00;;;16.40